Time;durP1;ratioP1;P1;durP2;ratioP2;P2;SDS_P1;SDS_P2;PMS_P1;PMS_P2;Temp;Humidity;BMP_temperature;BMP_pressure;BME280_temperature;BME280_humidity;BME280_pressure;Samples;Min_cycle;Max_cycle;Signal;HPM_P1;HPM_P2
2023/04/26 00:00:17;;;;;;;9.30;6.45;;;6.20;99.90;;;;;;4947529;29;20477;-75
2023/04/26 00:02:42;;;;;;;9.38;6.70;;;6.20;99.90;;;;;;4949768;29;20151;-74
2023/04/26 00:05:08;;;;;;;10.57;6.20;;;6.30;99.90;;;;;;4952354;29;20086;-75
2023/04/26 00:07:34;;;;;;;9.50;5.80;;;6.30;99.90;;;;;;4947906;29;20755;-75
2023/04/26 00:10:00;;;;;;;10.48;5.85;;;6.30;99.90;;;;;;4948327;29;20436;-76
2023/04/26 00:12:26;;;;;;;12.65;7.20;;;6.20;99.90;;;;;;4948203;28;20031;-75
2023/04/26 00:14:51;;;;;;;15.38;7.10;;;6.20;99.90;;;;;;4950123;29;20167;-75
2023/04/26 00:17:18;;;;;;;14.00;7.15;;;6.20;99.90;;;;;;4946737;29;20031;-75
2023/04/26 00:19:44;;;;;;;11.90;7.05;;;6.10;99.90;;;;;;4950631;29;20621;-74
2023/04/26 00:22:09;;;;;;;10.93;6.97;;;6.10;99.90;;;;;;4948498;29;20040;-77
2023/04/26 00:24:35;;;;;;;13.43;6.97;;;6.20;99.90;;;;;;4950738;29;20027;-74
2023/04/26 00:27:04;;;;;;;13.65;7.30;;;6.10;99.90;;;;;;4949368;28;20038;-75
2023/04/26 00:29:29;;;;;;;12.77;6.18;;;6.10;99.90;;;;;;4947018;29;20186;-75
2023/04/26 00:31:56;;;;;;;12.13;6.25;;;6.10;99.90;;;;;;4933548;29;20465;-74
2023/04/26 00:34:22;;;;;;;10.15;5.63;;;6.10;99.90;;;;;;4947801;29;20038;-75
2023/04/26 00:36:47;;;;;;;10.38;5.72;;;6.10;99.90;;;;;;4948668;29;20039;-74
2023/04/26 00:39:13;;;;;;;9.23;5.38;;;6.10;99.90;;;;;;4947714;29;20531;-78
2023/04/26 00:41:38;;;;;;;7.95;5.40;;;6.10;99.90;;;;;;4951838;29;20041;-74
2023/04/26 00:44:05;;;;;;;16.52;6.82;;;6.00;99.90;;;;;;4949455;28;20487;-75
2023/04/26 00:46:31;;;;;;;9.75;5.60;;;6.00;99.90;;;;;;4948921;29;20031;-74
2023/04/26 00:48:56;;;;;;;10.90;5.70;;;5.90;99.90;;;;;;4948126;28;20035;-75
2023/04/26 00:51:22;;;;;;;18.73;6.32;;;5.90;99.90;;;;;;4949283;29;20440;-76
2023/04/26 00:53:48;;;;;;;12.48;5.30;;;5.90;99.90;;;;;;4949592;29;20035;-74
2023/04/26 00:56:15;;;;;;;11.77;5.78;;;6.00;99.90;;;;;;4946935;29;20075;-77
2023/04/26 00:58:41;;;;;;;10.23;4.47;;;6.00;99.90;;;;;;4945279;29;20027;-75
2023/04/26 01:01:08;;;;;;;11.68;5.20;;;5.90;99.90;;;;;;4950954;28;20030;-74
2023/04/26 01:03:34;;;;;;;10.00;5.47;;;5.90;99.90;;;;;;4946729;29;20505;-74
2023/04/26 01:06:00;;;;;;;10.27;5.18;;;6.00;99.90;;;;;;4948567;29;20066;-74
2023/04/26 01:08:26;;;;;;;10.80;5.03;;;5.90;99.90;;;;;;4946663;29;20051;-73
2023/04/26 01:10:53;;;;;;;11.40;5.60;;;6.00;99.90;;;;;;4946976;29;20046;-74
2023/04/26 01:13:19;;;;;;;11.70;5.40;;;5.90;99.90;;;;;;4948952;29;20082;-75
2023/04/26 01:15:46;;;;;;;17.90;5.28;;;5.90;99.90;;;;;;4948256;28;20024;-74
2023/04/26 01:18:15;;;;;;;9.43;5.50;;;5.90;99.90;;;;;;4947163;29;20629;-77
2023/04/26 01:20:41;;;;;;;13.25;5.63;;;5.90;99.90;;;;;;4952303;29;20085;-74
2023/04/26 01:23:08;;;;;;;10.57;5.00;;;5.80;99.90;;;;;;4948151;29;20035;-74
2023/04/26 01:25:34;;;;;;;10.48;5.40;;;5.80;99.90;;;;;;4946048;29;20019;-75
2023/04/26 01:27:59;;;;;;;9.73;4.88;;;5.80;99.90;;;;;;4929917;29;20515;-75
2023/04/26 01:30:25;;;;;;;9.25;5.30;;;5.80;99.90;;;;;;4946951;29;20098;-74
2023/04/26 01:32:51;;;;;;;13.30;5.32;;;5.70;99.90;;;;;;4950864;29;20031;-74
2023/04/26 01:35:17;;;;;;;11.27;5.45;;;5.70;99.90;;;;;;4951736;28;20032;-75
2023/04/26 01:37:42;;;;;;;14.35;6.15;;;5.70;99.90;;;;;;4949561;29;20035;-74
2023/04/26 01:40:09;;;;;;;9.88;5.00;;;5.70;99.90;;;;;;4946230;29;20032;-73
2023/04/26 01:42:35;;;;;;;9.70;4.72;;;5.60;99.90;;;;;;4950194;29;20049;-74
2023/04/26 01:45:01;;;;;;;9.63;4.75;;;5.60;99.90;;;;;;4934307;29;20053;-75
2023/04/26 01:47:27;;;;;;;13.98;5.57;;;5.50;99.90;;;;;;4946316;29;20461;-74
2023/04/26 01:49:52;;;;;;;9.45;5.38;;;5.50;99.90;;;;;;4946708;29;20034;-74
2023/04/26 01:52:18;;;;;;;14.48;5.85;;;5.50;99.90;;;;;;4949130;28;20027;-75
2023/04/26 01:54:43;;;;;;;9.15;5.30;;;5.50;99.90;;;;;;4946660;29;20027;-75
2023/04/26 01:57:09;;;;;;;11.18;5.07;;;5.50;99.90;;;;;;4947633;29;20019;-75
2023/04/26 01:59:34;;;;;;;11.57;5.28;;;5.40;99.90;;;;;;4949877;29;20106;-75
2023/04/26 02:02:00;;;;;;;8.55;4.90;;;5.50;99.90;;;;;;4944487;29;20682;-75
2023/04/26 02:04:27;;;;;;;12.65;5.68;;;5.50;99.90;;;;;;4945045;28;20043;-74
2023/04/26 02:06:52;;;;;;;10.85;5.03;;;5.40;99.90;;;;;;4930087;29;20465;-75
2023/04/26 02:09:18;;;;;;;15.27;6.22;;;5.40;99.90;;;;;;4952172;28;20058;-74
2023/04/26 02:11:44;;;;;;;8.32;5.25;;;5.40;99.90;;;;;;4932295;29;20031;-74
2023/04/26 02:14:09;;;;;;;11.02;5.70;;;5.30;99.90;;;;;;4931360;29;20432;-76
2023/04/26 02:16:35;;;;;;;10.13;4.90;;;;;;;;;;4946192;29;20031;-74
2023/04/26 02:19:04;;;;;;;11.00;5.38;;;5.00;99.90;;;;;;4947662;29;20035;-74
2023/04/26 02:21:30;;;;;;;8.48;4.53;;;;;;;;;;4941948;29;20039;-74
2023/04/26 02:23:56;;;;;;;11.80;5.47;;;;;;;;;;4948483;28;20039;-75
2023/04/26 02:26:22;;;;;;;12.02;5.53;;;;;;;;;;4943296;29;20046;-75
2023/04/26 02:28:48;;;;;;;11.35;5.30;;;;;;;;;;4946251;29;20079;-75
2023/04/26 02:31:14;;;;;;;9.38;5.20;;;;;;;;;;4955597;29;20024;-77
2023/04/26 02:33:40;;;;;;;11.40;5.65;;;;;;;;;;4973671;29;20042;-73
2023/04/26 02:36:06;;;;;;;13.52;6.40;;;;;;;;;;4967717;29;20031;-76
2023/04/26 02:38:33;;;;;;;10.15;5.50;;;;;;;;;;4968238;29;20030;-76
2023/04/26 02:41:00;;;;;;;9.80;5.28;;;;;;;;;;4968086;28;20026;-76
2023/04/26 02:43:26;;;;;;;8.52;5.03;;;;;;;;;;4964647;29;20047;-75
2023/04/26 02:45:52;;;;;;;10.23;4.90;;;;;;;;;;4948742;29;20038;-75
2023/04/26 02:48:18;;;;;;;11.55;5.20;;;;;;;;;;4944167;29;20031;-74
2023/04/26 02:50:44;;;;;;;14.38;6.50;;;;;;;;;;4948362;29;20035;-75
2023/04/26 02:53:10;;;;;;;10.07;5.53;;;;;;;;;;4946596;29;20035;-77
2023/04/26 02:55:37;;;;;;;9.80;5.78;;;;;;;;;;4948989;28;20024;-74
2023/04/26 02:58:03;;;;;;;12.18;5.57;;;;;;;;;;4945854;29;20453;-76
2023/04/26 03:00:29;;;;;;;9.98;5.75;;;;;;;;;;4948221;29;20054;-74
2023/04/26 03:02:55;;;;;;;14.85;6.35;;;;;;;;;;4948401;29;20495;-75
2023/04/26 03:05:21;;;;;;;13.88;6.35;;;;;;;;;;4946360;29;20038;-74
2023/04/26 03:07:47;;;;;;;11.52;5.80;;;;;;;;;;4946263;29;20098;-74
2023/04/26 03:10:13;;;;;;;8.77;5.45;;;;;;;;;;4949721;29;20035;-78
2023/04/26 03:12:40;;;;;;;10.13;5.35;;;;;;;;;;4931641;29;20031;-74
2023/04/26 03:15:06;;;;;;;12.52;7.53;;;;;;;;;;4949456;29;20051;-74
2023/04/26 03:17:32;;;;;;;12.88;6.03;;;;;;;;;;4949163;29;20023;-75
2023/04/26 03:19:58;;;;;;;13.50;7.50;;;;;;;;;;4952443;29;20038;-74
2023/04/26 03:22:24;;;;;;;12.10;7.38;;;;;;;;;;4949518;29;20119;-76
2023/04/26 03:24:50;;;;;;;14.93;7.03;;;;;;;;;;4952185;29;20031;-75
2023/04/26 03:27:16;;;;;;;13.98;6.70;;;;;;;;;;4947942;29;20106;-74
2023/04/26 03:29:42;;;;;;;14.63;6.20;;;;;;;;;;4950498;28;20083;-74
2023/04/26 03:32:08;;;;;;;14.60;7.28;;;;;;;;;;4953162;29;20432;-74
2023/04/26 03:34:34;;;;;;;12.00;6.13;;;;;;;;;;4950434;29;20019;-74
2023/04/26 03:37:01;;;;;;;14.60;6.95;;;;;;;;;;4949761;29;20118;-74
2023/04/26 03:39:27;;;;;;;13.23;7.25;;;;;;;;;;4948657;29;20032;-75
2023/04/26 03:41:53;;;;;;;15.18;7.88;;;;;;;;;;4952630;29;20042;-75
2023/04/26 03:44:18;;;;;;;13.07;7.68;;;4.70;99.90;;;;;;4950259;29;20031;-74
2023/04/26 03:46:44;;;;;;;15.55;8.65;;;4.60;99.90;;;;;;4953500;28;20023;-75
2023/04/26 03:49:09;;;;;;;13.02;7.65;;;4.50;99.90;;;;;;4946761;29;20031;-76
2023/04/26 03:51:35;;;;;;;12.80;7.88;;;4.40;99.90;;;;;;4950709;29;20134;-73
2023/04/26 03:54:01;;;;;;;14.25;8.70;;;4.30;99.90;;;;;;4949470;29;20055;-75
2023/04/26 03:56:26;;;;;;;15.02;9.07;;;4.20;99.90;;;;;;4950581;29;20015;-75
2023/04/26 03:58:52;;;;;;;16.67;8.15;;;4.20;99.90;;;;;;4948700;29;20020;-75
2023/04/26 04:01:19;;;;;;;19.35;10.02;;;4.10;99.90;;;;;;4946263;29;20113;-76
2023/04/26 04:03:44;;;;;;;22.73;11.15;;;4.10;99.90;;;;;;4950508;28;20608;-73
2023/04/26 04:06:11;;;;;;;18.70;11.73;;;4.00;99.90;;;;;;4953989;29;20113;-78
2023/04/26 04:08:37;;;;;;;21.67;10.57;;;4.00;99.90;;;;;;4954312;29;20031;-73
2023/04/26 04:11:02;;;;;;;25.05;11.43;;;4.00;99.90;;;;;;4955321;29;20487;-73
2023/04/26 04:13:28;;;;;;;21.40;10.73;;;;;;;;;;4952982;29;20061;-73
2023/04/26 04:15:54;;;;;;;19.73;11.68;;;;;;;;;;4955239;29;20059;-72
2023/04/26 04:18:20;;;;;;;18.40;11.50;;;;;;;;;;4953669;29;20366;-75
2023/04/26 04:20:46;;;;;;;21.58;12.35;;;;;;;;;;4950353;28;20023;-73
2023/04/26 04:23:12;;;;;;;24.60;14.25;;;;;;;;;;4953444;28;20037;-76
2023/04/26 04:25:38;;;;;;;21.40;13.35;;;;;;;;;;4936989;29;20058;-74
2023/04/26 04:28:05;;;;;;;24.73;13.93;;;;;;;;;;4946017;29;20031;-74
2023/04/26 04:30:31;;;;;;;22.42;14.27;;;;;;;;;;4954299;29;20027;-75
2023/04/26 04:32:59;;;;;;;26.40;15.52;;;;;;;;;;4953659;29;20434;-75
2023/04/26 04:35:27;;;;;;;28.35;16.10;;;;;;;;;;4953985;29;20061;-75
2023/04/26 04:37:55;;;;;;;29.75;17.48;;;;;;;;;;4951603;28;20035;-75
2023/04/26 04:40:21;;;;;;;32.70;17.58;;;;;;;;;;4954135;29;20113;-75
2023/04/26 04:42:48;;;;;;;30.58;16.67;;;;;;;;;;4952622;29;20023;-75
2023/04/26 04:45:14;;;;;;;32.97;16.48;;;;;;;;;;4954237;29;20094;-76
2023/04/26 04:47:40;;;;;;;33.65;18.83;;;;;;;;;;4953936;29;20045;-74
2023/04/26 04:50:06;;;;;;;27.52;16.48;;;;;;;;;;4954395;29;20469;-74
2023/04/26 04:52:32;;;;;;;31.48;17.65;;;;;;;;;;4953316;29;20472;-74
2023/04/26 04:54:59;;;;;;;29.20;17.23;;;;;;;;;;4956234;28;20027;-75
2023/04/26 04:57:26;;;;;;;26.33;16.73;;;;;;;;;;4952802;29;20030;-74
2023/04/26 04:59:52;;;;;;;29.83;17.98;;;;;;;;;;4954520;29;20034;-73
2023/04/26 05:02:18;;;;;;;30.35;17.98;;;;;;;;;;4952740;29;20232;-73
2023/04/26 05:04:44;;;;;;;34.17;18.60;;;;;;;;;;4953696;29;20051;-75
2023/04/26 05:07:10;;;;;;;28.90;18.02;;;;;;;;;;4953844;29;20031;-76
2023/04/26 05:09:36;;;;;;;29.17;17.73;;;;;;;;;;4952689;29;20027;-74
2023/04/26 05:12:02;;;;;;;29.02;17.58;;;;;;;;;;4951721;28;20225;-74
2023/04/26 05:14:29;;;;;;;26.13;16.33;;;;;;;;;;4946807;29;20165;-74
2023/04/26 05:16:55;;;;;;;30.67;18.33;;;;;;;;;;4950320;29;20015;-76
2023/04/26 05:19:21;;;;;;;26.08;16.70;;;;;;;;;;4947315;29;20566;-75
2023/04/26 05:21:47;;;;;;;27.95;16.67;;;;;;;;;;4948599;29;20065;-74
2023/04/26 05:24:13;;;;;;;25.90;15.85;;;;;;;;;;4948026;29;20115;-76
2023/04/26 05:26:39;;;;;;;29.95;18.40;;;;;;;;;;4951988;28;20472;-75
2023/04/26 05:29:05;;;;;;;25.30;16.10;;;;;;;;;;4944938;29;20086;-74
2023/04/26 05:31:31;;;;;;;25.85;15.32;;;;;;;;;;4946917;28;20041;-75
2023/04/26 05:33:57;;;;;;;29.75;16.77;;;;;;;;;;4950943;29;20110;-74
2023/04/26 05:36:23;;;;;;;23.70;15.77;;;;;;;;;;4946964;28;20033;-72
2023/04/26 05:38:49;;;;;;;25.10;16.15;;;;;;;;;;4952121;29;20015;-73
2023/04/26 05:41:15;;;;;;;29.05;15.15;;;;;;;;;;4951187;29;20062;-75
2023/04/26 05:43:41;;;;;;;23.95;14.98;;;;;;;;;;4950428;29;20044;-73
2023/04/26 05:46:07;;;;;;;25.23;14.85;;;;;;;;;;4945684;29;20027;-74
2023/04/26 05:48:33;;;;;;;28.35;14.27;;;;;;;;;;4953942;28;20095;-78
2023/04/26 05:50:59;;;;;;;35.47;16.00;;;;;;;;;;4952712;29;20030;-74
2023/04/26 05:53:25;;;;;;;29.30;14.95;;;;;;;;;;4945303;29;20062;-74
2023/04/26 05:55:51;;;;;;;25.42;14.48;;;;;;;;;;4952155;29;20031;-74
2023/04/26 05:58:17;;;;;;;27.48;13.82;;;;;;;;;;4952124;29;20027;-74
2023/04/26 06:00:43;;;;;;;26.13;14.25;;;;;;;;;;4952887;29;20070;-74
2023/04/26 06:03:09;;;;;;;20.88;12.85;;;;;;;;;;4952716;29;20059;-74
2023/04/26 06:05:40;;;;;;;28.13;14.30;;;;;;;;;;4950811;28;20078;-75
2023/04/26 06:08:06;;;;;;;;;;;;;;;;;;4949552;28;20035;-74
2023/04/26 06:10:33;;;;;;;27.52;13.85;;;;;;;;;;4952442;29;20231;-73
2023/04/26 06:12:59;;;;;;;24.27;12.52;;;;;;;;;;4951785;29;20074;-73
2023/04/26 06:15:26;;;;;;;25.65;12.57;;;;;;;;;;4951775;29;20074;-74
2023/04/26 06:17:52;;;;;;;21.48;12.48;;;;;;;;;;4952354;29;20027;-72
2023/04/26 06:20:18;;;;;;;26.30;12.32;;;;;;;;;;4952186;29;20106;-73
2023/04/26 06:22:44;;;;;;;23.75;12.85;;;;;;;;;;4945130;29;21526;-73
2023/04/26 06:25:10;;;;;;;20.05;12.43;;;;;;;;;;4952188;29;20047;-72
2023/04/26 06:27:38;;;;;;;20.23;11.93;;;;;;;;;;4951732;29;20035;-73
2023/04/26 06:30:04;;;;;;;25.10;12.25;;;;;;;;;;4947201;28;20023;-74
2023/04/26 06:32:31;;;;;;;18.25;11.40;;;;;;;;;;4950726;28;20666;-74
2023/04/26 06:34:57;;;;;;;19.48;10.85;;;;;;;;;;4950025;28;20381;-74
2023/04/26 06:37:22;;;;;;;26.88;12.48;;;;;;;;;;4951191;29;20023;-74
2023/04/26 06:39:48;;;;;;;20.42;12.05;;;;;;;;;;4952509;29;20038;-74
2023/04/26 06:42:15;;;;;;;18.17;11.88;;;;;;;;;;4946756;28;20385;-78
2023/04/26 06:44:41;;;;;;;14.88;9.65;;;;;;;;;;4951845;29;20061;-74
2023/04/26 06:47:08;;;;;;;17.48;9.55;;;;;;;;;;4950628;28;20074;-74
2023/04/26 06:49:34;;;;;;;21.63;10.55;;;;;;;;;;4954899;29;20062;-73
2023/04/26 06:52:00;;;;;;;13.63;7.25;;;8.00;99.90;;;;;;4955763;29;20086;-73
2023/04/26 06:54:30;;;;;;;17.27;7.30;;;8.00;99.90;;;;;;4954930;29;20031;-73
2023/04/26 06:56:56;;;;;;;7.35;3.78;;;8.10;99.90;;;;;;4955853;29;20078;-74
2023/04/26 06:59:21;;;;;;;10.30;5.60;;;8.20;99.90;;;;;;4957836;29;20039;-74
2023/04/26 07:01:47;;;;;;;11.02;6.45;;;8.20;99.90;;;;;;4955042;29;20035;-73
2023/04/26 07:04:14;;;;;;;12.70;5.70;;;8.10;99.90;;;;;;4954208;29;20067;-77
2023/04/26 07:06:40;;;;;;;9.70;4.65;;;8.00;99.90;;;;;;4955621;29;20380;-74
2023/04/26 07:09:06;;;;;;;8.23;3.97;;;8.00;99.90;;;;;;4938073;29;20054;-73
2023/04/26 07:11:32;;;;;;;8.85;4.32;;;8.00;99.90;;;;;;4952773;29;20749;-73
2023/04/26 07:13:57;;;;;;;10.68;3.58;;;8.10;99.90;;;;;;4955683;29;20102;-73
2023/04/26 07:16:23;;;;;;;12.52;4.55;;;8.10;99.90;;;;;;4953081;29;20032;-75
2023/04/26 07:18:49;;;;;;;12.32;5.45;;;8.20;99.90;;;;;;4954904;29;20047;-73
2023/04/26 07:21:15;;;;;;;12.40;6.43;;;8.30;99.90;;;;;;4954141;29;20350;-77
2023/04/26 07:23:40;;;;;;;13.15;6.32;;;8.40;99.90;;;;;;4955065;29;20067;-76
2023/04/26 07:26:06;;;;;;;7.63;3.42;;;8.40;99.90;;;;;;4955413;29;20492;-73
2023/04/26 07:28:32;;;;;;;6.93;4.53;;;8.40;99.90;;;;;;4953765;29;20031;-74
2023/04/26 07:31:00;;;;;;;10.27;4.95;;;8.50;99.90;;;;;;4954376;29;20035;-73
2023/04/26 07:33:26;;;;;;;8.02;5.05;;;8.60;99.90;;;;;;4953754;29;20607;-74
2023/04/26 07:35:57;;;;;;;10.98;5.70;;;8.70;99.90;;;;;;4952854;29;20143;-74
2023/04/26 07:38:23;;;;;;;14.48;5.18;;;8.80;99.90;;;;;;4953270;29;20031;-73
2023/04/26 07:40:49;;;;;;;10.48;5.47;;;9.00;99.90;;;;;;4952288;29;20468;-74
2023/04/26 07:43:15;;;;;;;12.38;5.30;;;9.00;99.90;;;;;;4953433;29;20046;-75
2023/04/26 07:45:41;;;;;;;8.75;5.00;;;9.10;99.90;;;;;;4954930;29;20088;-74
2023/04/26 07:48:07;;;;;;;15.70;5.30;;;9.00;99.90;;;;;;4954027;29;20023;-74
2023/04/26 07:50:33;;;;;;;12.63;5.88;;;8.90;99.90;;;;;;4954288;29;20488;-74
2023/04/26 07:52:59;;;;;;;12.73;6.30;;;8.80;99.90;;;;;;4954516;29;20469;-74
2023/04/26 07:55:25;;;;;;;12.90;5.80;;;8.70;99.90;;;;;;4953801;29;20083;-73
2023/04/26 07:57:50;;;;;;;11.00;5.70;;;8.70;99.90;;;;;;4954403;29;20361;-73
2023/04/26 08:00:17;;;;;;;13.20;6.22;;;8.80;99.90;;;;;;4952864;29;20038;-74
2023/04/26 08:02:45;;;;;;;13.40;5.85;;;8.90;99.90;;;;;;4953358;28;20393;-74
2023/04/26 08:05:11;;;;;;;9.40;5.47;;;8.90;99.90;;;;;;4953933;29;20114;-76
2023/04/26 08:07:37;;;;;;;13.57;6.10;;;8.90;99.90;;;;;;4953168;29;20034;-73
2023/04/26 08:10:03;;;;;;;11.98;5.55;;;9.10;99.90;;;;;;4954631;29;20122;-73
2023/04/26 08:12:28;;;;;;;9.75;5.35;;;9.10;99.90;;;;;;4950953;29;20031;-73
2023/04/26 08:14:54;;;;;;;11.45;5.43;;;9.10;99.90;;;;;;4954031;29;20441;-74
2023/04/26 08:17:19;;;;;;;10.15;5.13;;;9.00;99.90;;;;;;4953178;29;20066;-75
2023/04/26 08:19:45;;;;;;;8.80;4.75;;;8.90;99.90;;;;;;4954027;29;20058;-74
2023/04/26 08:22:11;;;;;;;15.32;5.43;;;8.80;99.90;;;;;;4954292;29;20137;-77
2023/04/26 08:24:36;;;;;;;10.00;5.32;;;8.80;99.90;;;;;;4953701;29;20031;-75
2023/04/26 08:27:02;;;;;;;12.32;5.47;;;8.90;99.90;;;;;;4953123;29;20035;-75
2023/04/26 08:29:28;;;;;;;7.95;5.20;;;8.90;99.90;;;;;;4953619;29;20463;-74
2023/04/26 08:31:54;;;;;;;19.05;5.40;;;8.90;99.90;;;;;;4953448;29;20057;-73
2023/04/26 08:34:19;;;;;;;11.18;5.57;;;9.00;99.90;;;;;;4953518;29;20054;-73
2023/04/26 08:36:45;;;;;;;7.65;4.60;;;9.10;99.90;;;;;;4953584;29;20035;-72
2023/04/26 08:39:11;;;;;;;14.00;5.55;;;9.30;99.90;;;;;;4954065;29;20062;-78
2023/04/26 08:41:42;;;;;;;9.98;5.40;;;9.30;99.90;;;;;;4952917;29;20034;-75
2023/04/26 08:44:08;;;;;;;17.73;5.90;;;9.60;99.90;;;;;;4931364;29;20038;-74
2023/04/26 08:46:43;;;;;;;9.00;4.85;;;10.00;99.90;;;;;;4947278;29;20750;-72
2023/04/26 08:49:35;;;;;;;10.98;4.75;;;10.20;99.90;;;;;;4954222;29;20028;-73
2023/04/26 08:52:03;;;;;;;9.50;4.97;;;10.70;99.90;;;;;;4953684;29;20110;-73
2023/04/26 08:54:30;;;;;;;8.82;5.50;;;11.00;99.90;;;;;;4953728;29;20440;-73
2023/04/26 08:56:58;;;;;;;7.15;4.65;;;11.10;99.90;;;;;;4953273;29;20093;-75
2023/04/26 08:59:24;;;;;;;11.10;4.50;;;11.10;99.90;;;;;;4952704;29;20023;-73
2023/04/26 09:01:51;;;;;;;13.52;5.80;;;11.00;99.90;;;;;;4953432;29;20389;-73
2023/04/26 09:04:16;;;;;;;9.63;4.97;;;10.90;99.70;;;;;;4949270;29;20043;-73
2023/04/26 09:06:43;;;;;;;9.77;4.85;;;10.90;99.90;;;;;;4929173;29;20027;-73
2023/04/26 09:09:11;;;;;;;9.63;4.07;;;10.90;99.90;;;;;;4950767;29;20472;-72
2023/04/26 09:11:59;;;;;;;9.02;4.07;;;11.10;99.40;;;;;;4953085;28;20129;-74
2023/04/26 09:14:25;;;;;;;9.98;3.97;;;11.30;99.40;;;;;;4948377;29;20034;-74
2023/04/26 09:16:51;;;;;;;7.55;4.40;;;11.40;98.40;;;;;;4952393;29;20392;-73
2023/04/26 09:19:30;;;;;;;8.27;3.85;;;11.60;98.20;;;;;;4952424;29;20038;-73
2023/04/26 09:21:56;;;;;;;10.73;3.72;;;11.60;98.60;;;;;;4951552;29;20031;-74
2023/04/26 09:24:22;;;;;;;12.88;3.92;;;11.60;99.20;;;;;;4950194;29;20114;-72
2023/04/26 09:27:02;;;;;;;9.45;3.92;;;11.60;98.70;;;;;;4952345;29;20098;-73
2023/04/26 09:29:28;;;;;;;7.22;3.80;;;11.50;98.70;;;;;;4952217;29;20061;-74
2023/04/26 09:31:54;;;;;;;8.05;4.28;;;11.50;98.90;;;;;;4951686;29;20472;-73
2023/04/26 09:34:20;;;;;;;12.35;5.35;;;11.60;98.80;;;;;;4951081;28;20050;-73
2023/04/26 09:36:47;;;;;;;11.48;4.70;;;11.70;97.80;;;;;;4951468;29;20501;-73
2023/04/26 09:39:13;;;;;;;13.60;5.32;;;11.80;97.70;;;;;;4952342;29;20071;-77
2023/04/26 09:41:44;;;;;;;11.82;4.82;;;11.90;97.60;;;;;;4951290;29;20113;-73
2023/04/26 09:44:23;;;;;;;11.30;4.53;;;11.90;98.30;;;;;;4935419;29;20031;-77
2023/04/26 09:47:08;;;;;;;16.55;5.70;;;12.00;98.20;;;;;;4952674;29;20032;-74
2023/04/26 09:49:49;;;;;;;20.05;5.93;;;12.10;97.50;;;;;;4951813;29;20086;-72
2023/04/26 09:52:16;;;;;;;11.27;4.90;;;12.20;97.70;;;;;;4947567;29;20433;-77
2023/04/26 09:54:48;;;;;;;11.40;5.18;;;12.30;97.40;;;;;;4951871;29;20038;-74
2023/04/26 09:57:16;;;;;;;15.90;5.50;;;12.30;98.40;;;;;;4950607;29;20546;-78
2023/04/26 09:59:46;;;;;;;15.13;5.38;;;12.20;96.30;;;;;;4952214;29;20480;-74
2023/04/26 10:02:22;;;;;;;;;;;12.10;96.80;;;;;;4952206;29;20188;-77
2023/04/26 10:04:51;;;;;;;8.70;4.75;;;11.90;97.60;;;;;;4951845;29;20001;-72
2023/04/26 10:07:21;;;;;;;11.43;4.78;;;11.90;97.10;;;;;;4933586;29;20138;-73
2023/04/26 10:09:46;;;;;;;10.68;4.88;;;11.90;96.90;;;;;;4952379;29;20047;-73
2023/04/26 10:12:15;;;;;;;11.38;5.82;;;11.90;96.30;;;;;;4931813;29;20106;-77
2023/04/26 10:14:43;;;;;;;18.23;5.00;;;11.90;96.50;;;;;;4951147;29;20455;-76
2023/04/26 10:17:10;;;;;;;12.98;5.03;;;12.00;96.80;;;;;;4950969;29;20032;-74
2023/04/26 10:19:37;;;;;;;14.68;5.15;;;12.00;96.60;;;;;;4948052;29;20027;-75
2023/04/26 10:22:26;;;;;;;8.57;4.30;;;12.20;95.90;;;;;;4950276;28;20031;-73
2023/04/26 10:24:53;;;;;;;13.00;4.97;;;12.40;96.10;;;;;;4956211;29;20083;-74
2023/04/26 10:27:38;;;;;;;7.65;4.18;;;;;;;;;;4950281;29;20086;-74
2023/04/26 10:30:08;;;;;;;12.63;5.30;;;13.10;95.10;;;;;;4955534;28;20031;-76
2023/04/26 10:32:56;;;;;;;7.72;3.97;;;13.20;94.70;;;;;;4949487;28;20046;-75
2023/04/26 10:35:26;;;;;;;8.30;4.63;;;13.60;94.30;;;;;;4952170;29;20031;-74
2023/04/26 10:38:00;;;;;;;9.55;4.50;;;13.80;93.70;;;;;;4955560;29;20121;-74
2023/04/26 10:40:29;;;;;;;7.13;3.88;;;13.80;93.50;;;;;;4955056;29;20489;-74
2023/04/26 10:43:13;;;;;;;9.77;4.95;;;14.00;93.30;;;;;;4955416;29;20377;-74
2023/04/26 10:45:46;;;;;;;8.85;4.85;;;14.10;91.90;;;;;;4955729;29;20106;-74
2023/04/26 10:48:18;;;;;;;10.75;4.28;;;14.00;92.10;;;;;;4955077;29;20032;-72
2023/04/26 10:51:06;;;;;;;10.88;5.00;;;13.70;91.30;;;;;;4955401;29;20046;-73
2023/04/26 10:53:46;;;;;;;8.63;4.25;;;13.50;91.80;;;;;;4954839;29;20035;-73
2023/04/26 10:56:22;;;;;;;;;;;13.30;92.60;;;;;;4956199;29;20381;-77
2023/04/26 10:58:48;;;;;;;7.63;3.53;;;13.30;92.10;;;;;;4947897;29;20049;-73
2023/04/26 11:01:15;;;;;;;7.60;4.22;;;13.30;91.80;;;;;;4955365;29;20031;-76
2023/04/26 11:03:57;;;;;;;8.77;4.63;;;13.50;92.10;;;;;;4955151;29;20071;-73
2023/04/26 11:06:23;;;;;;;11.05;4.70;;;13.60;91.00;;;;;;4955251;29;20031;-73
2023/04/26 11:08:50;;;;;;;7.47;4.65;;;13.70;90.60;;;;;;4956021;29;20537;-74
2023/04/26 11:11:18;;;;;;;8.77;3.92;;;13.60;90.60;;;;;;4952749;29;20031;-75
2023/04/26 11:13:44;;;;;;;9.70;4.20;;;13.60;90.20;;;;;;4955645;29;20046;-73
2023/04/26 11:16:14;;;;;;;8.63;3.40;;;13.80;91.00;;;;;;4955526;29;20488;-72
2023/04/26 11:18:45;;;;;;;9.20;3.67;;;14.00;90.90;;;;;;4954972;29;20038;-74
2023/04/26 11:21:16;;;;;;;;;;;14.40;90.20;;;;;;4950096;29;20039;-73
2023/04/26 11:23:51;;;;;;;6.03;3.85;;;14.80;88.90;;;;;;4957422;29;19918;-73
2023/04/26 11:26:17;;;;;;;9.52;4.50;;;15.00;87.40;;;;;;4954524;29;20027;-74
2023/04/26 11:28:44;;;;;;;11.80;4.00;;;14.90;87.40;;;;;;4955277;29;20023;-73
2023/04/26 11:31:10;;;;;;;9.23;3.97;;;14.60;85.60;;;;;;4956401;29;20073;-73
2023/04/26 11:33:36;;;;;;;6.28;3.63;;;14.40;86.10;;;;;;4953502;28;20031;-74
2023/04/26 11:36:02;;;;;;;8.55;3.72;;;14.30;86.60;;;;;;4955263;29;20055;-73
2023/04/26 11:38:28;;;;;;;7.55;3.47;;;14.20;85.20;;;;;;4952465;29;20054;-73
2023/04/26 11:41:02;;;;;;;8.60;4.13;;;14.10;86.80;;;;;;4953975;29;20374;-73
2023/04/26 11:43:31;;;;;;;8.38;4.30;;;14.20;85.40;;;;;;4948201;29;20062;-73
2023/04/26 11:46:00;;;;;;;7.65;3.72;;;14.20;86.70;;;;;;4953212;29;20496;-75
2023/04/26 11:48:27;;;;;;;8.23;3.90;;;14.30;85.80;;;;;;4949737;29;20031;-74
2023/04/26 11:50:55;;;;;;;6.75;3.85;;;14.20;84.90;;;;;;4955330;29;20446;-72
2023/04/26 11:53:21;;;;;;;7.72;3.90;;;14.40;86.40;;;;;;4955280;29;20122;-73
2023/04/26 11:55:47;;;;;;;8.07;4.30;;;14.90;84.30;;;;;;4955020;29;20042;-73
2023/04/26 11:58:14;;;;;;;9.77;4.00;;;15.20;86.20;;;;;;4954147;29;20050;-78
2023/04/26 12:01:00;;;;;;;10.35;3.90;;;15.20;81.20;;;;;;4955460;29;20054;-73
2023/04/26 12:03:36;;;;;;;9.07;4.05;;;15.00;81.30;;;;;;4954007;29;20178;-73
2023/04/26 12:06:05;;;;;;;9.25;3.58;;;14.90;82.40;;;;;;4951867;29;20472;-73
2023/04/26 12:08:32;;;;;;;6.47;3.50;;;15.00;82.10;;;;;;4953358;29;20110;-72
2023/04/26 12:11:01;;;;;;;10.43;4.38;;;15.00;81.90;;;;;;4957321;29;20035;-74
2023/04/26 12:13:28;;;;;;;9.48;3.97;;;15.00;82.60;;;;;;4970691;29;20090;-73
2023/04/26 12:15:54;;;;;;;7.75;3.90;;;14.60;81.90;;;;;;4972115;29;20110;-77
2023/04/26 12:18:20;;;;;;;7.63;4.35;;;14.30;82.80;;;;;;4973354;29;20035;-74
2023/04/26 12:20:46;;;;;;;8.20;3.83;;;14.20;83.60;;;;;;4973242;29;20034;-77
2023/04/26 12:23:16;;;;;;;8.27;3.80;;;14.10;83.70;;;;;;4971065;29;20032;-78
2023/04/26 12:25:52;;;;;;;8.80;3.10;;;14.20;83.90;;;;;;4958947;29;20070;-72
2023/04/26 12:28:18;;;;;;;8.32;3.35;;;14.40;84.00;;;;;;4956507;29;20036;-73
2023/04/26 12:30:43;;;;;;;5.18;3.13;;;15.00;80.70;;;;;;4937854;29;20499;-73
2023/04/26 12:33:10;;;;;;;7.75;3.38;;;;;;;;;;4956365;29;20496;-73
2023/04/26 12:35:35;;;;;;;8.20;3.42;;;16.10;79.40;;;;;;4955863;29;20028;-73
2023/04/26 12:38:01;;;;;;;9.48;4.10;;;16.10;78.60;;;;;;4939448;29;20046;-74
2023/04/26 12:40:28;;;;;;;7.03;3.72;;;15.70;77.50;;;;;;4955534;29;20054;-76
2023/04/26 12:42:54;;;;;;;5.45;3.15;;;15.40;78.80;;;;;;4957870;29;20043;-73
2023/04/26 12:45:21;;;;;;;5.78;3.22;;;15.30;78.00;;;;;;4935426;29;20046;-74
2023/04/26 12:47:48;;;;;;;6.45;3.55;;;15.30;77.80;;;;;;4952808;29;20020;-75
2023/04/26 12:50:14;;;;;;;8.57;3.30;;;15.00;77.00;;;;;;4937159;29;20159;-78
2023/04/26 12:52:42;;;;;;;9.02;3.40;;;15.00;77.90;;;;;;4953123;29;20042;-74
2023/04/26 12:55:09;;;;;;;8.45;3.78;;;14.90;78.50;;;;;;4953537;29;20046;-74
2023/04/26 12:57:39;;;;;;;5.18;3.65;;;14.80;79.30;;;;;;4952341;29;20031;-75
2023/04/26 13:00:06;;;;;;;5.47;3.55;;;14.80;79.00;;;;;;4953819;29;20039;-73
2023/04/26 13:02:33;;;;;;;6.13;3.10;;;15.00;80.80;;;;;;4951267;29;20039;-73
2023/04/26 13:05:00;;;;;;;11.05;4.47;;;15.40;79.50;;;;;;4953083;29;20082;-74
2023/04/26 13:07:26;;;;;;;8.13;3.28;;;15.70;76.60;;;;;;4953034;29;20027;-74
2023/04/26 13:09:52;;;;;;;5.90;2.92;;;15.80;77.50;;;;;;4954007;29;20039;-75
2023/04/26 13:12:18;;;;;;;8.85;2.90;;;16.00;77.50;;;;;;4952951;29;20031;-76
2023/04/26 13:14:44;;;;;;;6.15;3.15;;;16.30;76.20;;;;;;4953017;29;20502;-73